Time;durP1;ratioP1;P1;durP2;ratioP2;P2;SDS_P1;SDS_P2;PMS_P1;PMS_P2;Temp;Humidity;BMP_temperature;BMP_pressure;BME280_temperature;BME280_humidity;BME280_pressure;Samples;Min_cycle;Max_cycle;Signal;HPM_P1;HPM_P2
2022/06/24 04:00:13;;;;;;;9.30;2.20;;;23.30;82.10;;;;;;6102060;23;21316;-81
2022/06/24 04:02:40;;;;;;;2.80;1.80;;;23.90;80.20;;;;;;4976742;28;20436;-81
2022/06/24 04:05:07;;;;;;;5.33;2.77;;;24.40;78.80;;;;;;4979627;28;20197;-78
2022/06/24 04:07:33;;;;;;;9.73;2.40;;;24.70;77.70;;;;;;4995486;28;20412;-76
2022/06/24 04:09:58;;;;;;;6.20;2.07;;;25.10;77.10;;;;;;4995355;28;20574;-74
2022/06/24 04:12:24;;;;;;;6.80;2.47;;;25.10;77.00;;;;;;4995326;28;20203;-74
2022/06/24 04:17:33;;;;;;;3.90;2.80;;;26.00;75.40;;;;;;4994837;28;20315;-73
2022/06/24 04:19:59;;;;;;;5.10;2.63;;;26.50;74.40;;;;;;4994933;28;20536;-74
2022/06/24 04:24:59;;;;;;;4.53;2.30;;;26.20;74.60;;;;;;5645429;22;20233;-75
2022/06/24 04:27:25;;;;;;;3.50;2.23;;;26.40;74.10;;;;;;4975309;28;20528;-75
2022/06/24 04:29:51;;;;;;;7.50;2.90;;;26.70;72.90;;;;;;4975560;28;20201;-75
2022/06/24 04:32:16;;;;;;;6.23;2.60;;;27.30;71.90;;;;;;4975157;28;20592;-75
2022/06/24 04:34:42;;;;;;;4.00;1.93;;;27.10;72.10;;;;;;4975229;28;20190;-75
2022/06/24 04:37:07;;;;;;;5.97;2.47;;;27.30;71.70;;;;;;4975527;28;20188;-75
2022/06/24 04:39:33;;;;;;;2.63;2.07;;;27.20;72.40;;;;;;4974853;28;20629;-76
2022/06/24 04:41:59;;;;;;;6.53;2.07;;;27.00;73.00;;;;;;4975267;28;20657;-74
2022/06/24 04:44:24;;;;;;;4.53;2.33;;;26.90;72.70;;;;;;4975001;28;20297;-76
2022/06/24 04:46:50;;;;;;;3.00;2.07;;;27.20;72.40;;;;;;4974592;28;20174;-75
2022/06/24 04:49:15;;;;;;;3.30;2.30;;;26.90;72.20;;;;;;4974582;28;20648;-75
2022/06/24 04:51:41;;;;;;;3.60;2.10;;;27.10;72.70;;;;;;4975105;28;20201;-75
2022/06/24 04:54:06;;;;;;;4.90;2.10;;;27.60;71.40;;;;;;4974263;28;20189;-75
2022/06/24 04:56:32;;;;;;;3.70;1.80;;;27.60;71.70;;;;;;4975141;28;20190;-75
2022/06/24 04:58:57;;;;;;;6.90;2.30;;;27.50;72.60;;;;;;4974611;28;20178;-78
2022/06/24 05:01:22;;;;;;;2.57;1.90;;;28.00;71.20;;;;;;4975005;28;20550;-79
2022/06/24 05:03:48;;;;;;;2.80;1.77;;;27.80;71.20;;;;;;4974773;28;20196;-79
2022/06/24 05:06:14;;;;;;;5.00;2.50;;;27.90;70.70;;;;;;4975020;28;20631;-79
2022/06/24 05:08:39;;;;;;;2.33;2.00;;;28.10;70.20;;;;;;4974443;28;20224;-79
2022/06/24 05:11:06;;;;;;;3.47;1.90;;;28.90;68.20;;;;;;4974843;28;20193;-79
2022/06/24 05:13:31;;;;;;;3.17;1.90;;;28.60;69.10;;;;;;4974988;28;20176;-79
2022/06/24 05:15:58;;;;;;;3.80;2.30;;;28.30;69.00;;;;;;4974729;28;20422;-79
2022/06/24 05:18:23;;;;;;;3.17;2.10;;;28.10;70.00;;;;;;4974080;28;20176;-79
2022/06/24 05:20:49;;;;;;;6.03;2.10;;;28.10;69.80;;;;;;4973217;28;20535;-80
2022/06/24 05:23:14;;;;;;;4.63;1.80;;;28.10;70.60;;;;;;4974866;28;20260;-80
2022/06/24 05:25:40;;;;;;;4.90;2.33;;;28.90;67.80;;;;;;4974547;28;20279;-79
2022/06/24 05:28:05;;;;;;;2.20;1.87;;;28.60;69.20;;;;;;4973468;28;20177;-79
2022/06/24 05:30:31;;;;;;;1.97;1.63;;;28.60;69.40;;;;;;4974449;28;20202;-79
2022/06/24 05:32:56;;;;;;;5.63;2.00;;;29.00;68.40;;;;;;4974552;28;20225;-79
2022/06/24 05:35:22;;;;;;;3.00;2.03;;;27.70;70.60;;;;;;4974342;28;20174;-78
2022/06/24 05:37:47;;;;;;;5.33;2.00;;;27.90;70.40;;;;;;4973812;28;20177;-78
2022/06/24 05:40:13;;;;;;;5.43;2.30;;;27.80;70.00;;;;;;4974354;28;20182;-78
2022/06/24 05:42:38;;;;;;;4.10;1.83;;;27.80;70.20;;;;;;4973099;28;20265;-78
2022/06/24 05:45:04;;;;;;;3.13;1.97;;;27.30;70.70;;;;;;4974435;28;20288;-78
2022/06/24 05:47:29;;;;;;;3.73;1.97;;;28.00;69.90;;;;;;4973672;28;20189;-79
2022/06/24 05:49:55;;;;;;;4.13;1.70;;;28.20;69.30;;;;;;4974202;28;20177;-78
2022/06/24 05:55:02;;;;;;;6.13;1.70;;;28.00;69.70;;;;;;4974169;28;20720;-79
2022/06/24 05:55:06;;;;;;;3.70;1.90;;;28.40;68.70;;;;;;4964662;28;20220;-79
2022/06/24 05:57:31;;;;;;;4.97;2.20;;;28.30;68.40;;;;;;4958947;28;20941;-79
2022/06/24 05:59:57;;;;;;;4.53;2.07;;;27.80;69.70;;;;;;4969594;28;20705;-79
2022/06/24 06:02:23;;;;;;;1.87;1.67;;;28.90;66.90;;;;;;4968211;28;20205;-80
2022/06/24 06:04:48;;;;;;;6.50;2.00;;;28.00;67.60;;;;;;4968809;28;20623;-80
2022/06/24 06:07:14;;;;;;;3.40;1.73;;;28.50;68.00;;;;;;4972869;28;20165;-81
2022/06/24 06:09:41;;;;;;;8.33;1.70;;;29.30;65.90;;;;;;4974177;28;20212;-82
2022/06/24 06:12:07;;;;;;;6.10;1.60;;;29.70;65.00;;;;;;4973538;28;20201;-80
2022/06/24 06:14:32;;;;;;;2.13;1.80;;;29.20;65.50;;;;;;4973920;28;20508;-81
2022/06/24 06:16:58;;;;;;;2.63;1.97;;;29.50;65.10;;;;;;4973691;28;20191;-81
2022/06/24 06:19:23;;;;;;;3.53;1.90;;;29.80;64.50;;;;;;4973992;28;20719;-81
2022/06/24 06:21:49;;;;;;;3.60;1.70;;;29.80;64.80;;;;;;4978269;28;20206;-80
2022/06/24 06:24:14;;;;;;;3.93;1.90;;;30.00;64.20;;;;;;4988170;28;20229;-80
2022/06/24 06:26:40;;;;;;;8.73;2.00;;;29.80;64.40;;;;;;4983142;28;20528;-80
2022/06/24 06:29:05;;;;;;;5.67;2.00;;;29.40;64.70;;;;;;4989355;28;20188;-80
2022/06/24 06:31:31;;;;;;;7.90;2.20;;;29.40;65.40;;;;;;4980546;28;20756;-80
2022/06/24 06:33:56;;;;;;;7.53;1.70;;;29.80;64.50;;;;;;4991092;28;20162;-80
2022/06/24 06:36:22;;;;;;;9.70;1.80;;;30.10;63.40;;;;;;4993448;28;20196;-80
2022/06/24 06:38:47;;;;;;;7.43;1.63;;;29.60;64.10;;;;;;4981226;28;20264;-80
2022/06/24 06:41:14;;;;;;;2.90;1.73;;;29.60;63.60;;;;;;4978740;28;20198;-80
2022/06/24 06:43:39;;;;;;;2.23;1.70;;;30.30;64.00;;;;;;4988704;28;20233;-80
2022/06/24 06:46:09;;;;;;;11.17;1.90;;;31.20;61.20;;;;;;4982219;28;20417;-81
2022/06/24 06:48:35;;;;;;;2.07;1.60;;;31.10;60.30;;;;;;4983540;28;20628;-80
2022/06/24 06:51:00;;;;;;;3.17;1.83;;;31.10;60.50;;;;;;4986202;28;20444;-80
2022/06/24 06:53:27;;;;;;;4.43;1.80;;;30.30;62.30;;;;;;4982249;28;20190;-80
2022/06/24 06:55:53;;;;;;;2.17;1.50;;;30.80;62.10;;;;;;4992302;28;20178;-81
2022/06/24 06:58:19;;;;;;;3.10;2.53;;;30.90;62.80;;;;;;4980864;28;20421;-80
2022/06/24 07:00:45;;;;;;;3.00;1.83;;;31.30;61.50;;;;;;4995586;28;20217;-80
2022/06/24 07:03:11;;;;;;;6.43;2.00;;;32.10;58.60;;;;;;4981682;28;20452;-81
2022/06/24 07:05:37;;;;;;;6.03;2.20;;;31.40;60.00;;;;;;4977722;28;20460;-80
2022/06/24 07:08:03;;;;;;;3.90;1.80;;;31.60;60.30;;;;;;4976263;28;20174;-80
2022/06/24 07:10:28;;;;;;;2.27;1.70;;;31.40;59.30;;;;;;4977165;28;20174;-80
2022/06/24 07:12:54;;;;;;;1.77;1.50;;;31.60;59.40;;;;;;4976301;28;20190;-80
2022/06/24 07:15:19;;;;;;;6.83;1.60;;;31.20;59.90;;;;;;4978642;28;20231;-80
2022/06/24 07:17:45;;;;;;;6.00;2.47;;;30.30;61.50;;;;;;4976776;28;20645;-80
2022/06/24 07:20:11;;;;;;;3.63;1.60;;;31.00;59.90;;;;;;4977048;28;20725;-80
2022/06/24 07:22:36;;;;;;;7.07;2.50;;;31.60;59.60;;;;;;4975553;28;20196;-80
2022/06/24 07:25:02;;;;;;;3.57;1.80;;;31.20;58.60;;;;;;4975960;28;20829;-80
2022/06/24 07:27:28;;;;;;;4.40;1.67;;;30.50;60.50;;;;;;4976900;28;20185;-80
2022/06/24 07:29:53;;;;;;;4.87;1.40;;;31.10;60.10;;;;;;4975266;28;20232;-80
2022/06/24 07:32:19;;;;;;;6.93;2.13;;;31.50;59.60;;;;;;4976226;28;20198;-80
2022/06/24 07:34:44;;;;;;;2.37;1.77;;;32.10;57.90;;;;;;4975330;28;20525;-80
2022/06/24 07:37:10;;;;;;;5.30;1.90;;;31.30;58.20;;;;;;4976463;28;20200;-80
2022/06/24 07:39:35;;;;;;;2.40;1.70;;;31.10;59.10;;;;;;4976351;28;20196;-80
2022/06/24 07:42:01;;;;;;;2.30;1.67;;;30.60;59.70;;;;;;4975440;28;20197;-80
2022/06/24 07:44:27;;;;;;;6.10;2.50;;;29.90;60.40;;;;;;4977686;28;20206;-80
2022/06/24 07:46:52;;;;;;;6.90;1.50;;;30.10;60.80;;;;;;4977920;28;20205;-80
2022/06/24 07:49:18;;;;;;;3.83;1.47;;;30.50;61.60;;;;;;4976286;28;20247;-80
2022/06/24 07:51:44;;;;;;;3.70;1.70;;;30.70;60.40;;;;;;4978403;28;20202;-80
2022/06/24 07:54:09;;;;;;;4.27;2.10;;;29.80;62.00;;;;;;4982508;28;20213;-80
2022/06/24 07:59:20;;;;;;;7.83;2.10;;;29.90;61.90;;;;;;4982918;28;20187;-80
2022/06/24 08:01:46;;;;;;;3.23;1.50;;;29.20;63.80;;;;;;4984229;28;20440;-80
2022/06/24 08:04:11;;;;;;;2.73;1.60;;;29.50;63.60;;;;;;4984499;28;20201;-80
2022/06/24 08:06:42;;;;;;;5.70;1.83;;;29.40;63.70;;;;;;4983473;28;20181;-80
2022/06/24 08:09:08;;;;;;;5.37;1.60;;;29.30;63.80;;;;;;4976411;28;20220;-81
2022/06/24 08:11:34;;;;;;;4.70;1.93;;;29.60;64.00;;;;;;4976894;28;20441;-81
2022/06/24 08:13:59;;;;;;;9.27;2.57;;;29.60;63.70;;;;;;4976887;28;20669;-80
2022/06/24 08:16:25;;;;;;;2.23;1.73;;;30.10;63.20;;;;;;4976813;28;20661;-80
2022/06/24 08:18:51;;;;;;;5.43;1.93;;;30.60;62.00;;;;;;4977304;28;20182;-80
2022/06/24 08:21:16;;;;;;;3.80;1.90;;;30.80;62.20;;;;;;4977497;28;20185;-81
2022/06/24 08:23:42;;;;;;;2.60;1.80;;;30.60;62.10;;;;;;4978426;28;20185;-81
2022/06/24 08:26:07;;;;;;;4.10;1.93;;;30.30;62.40;;;;;;4977556;28;20276;-76
2022/06/24 08:28:33;;;;;;;4.70;1.90;;;30.30;62.30;;;;;;4975050;28;20229;-78
2022/06/24 08:30:58;;;;;;;3.43;1.90;;;30.10;63.40;;;;;;4975270;28;20193;-76
2022/06/24 08:33:24;;;;;;;3.60;1.70;;;30.00;63.60;;;;;;4976728;28;20177;-76
2022/06/24 08:35:50;;;;;;;3.83;2.00;;;29.40;63.90;;;;;;4976666;28;20215;-76
2022/06/24 08:38:17;;;;;;;2.27;1.97;;;28.90;64.90;;;;;;4974887;28;20552;-77
2022/06/24 08:40:46;;;;;;;6.17;1.80;;;29.30;64.40;;;;;;4975609;28;20198;-76
2022/06/24 08:43:13;;;;;;;2.50;1.90;;;29.30;64.60;;;;;;4975851;28;20412;-76
2022/06/24 08:45:38;;;;;;;5.77;2.40;;;29.40;64.00;;;;;;4975465;28;20511;-76
2022/06/24 08:48:10;;;;;;;3.90;1.87;;;29.20;64.20;;;;;;4975313;28;20417;-77
2022/06/24 08:50:36;;;;;;;5.13;2.70;;;29.80;64.90;;;;;;4975531;28;20194;-77
2022/06/24 08:53:06;;;;;;;3.80;2.07;;;30.50;63.60;;;;;;4975331;28;20459;-78
2022/06/24 08:55:39;;;;;;;7.83;2.23;;;31.30;62.80;;;;;;4975783;28;20522;-76
2022/06/24 08:58:12;;;;;;;6.30;2.00;;;30.40;62.70;;;;;;4975110;28;20428;-78
2022/06/24 09:00:39;;;;;;;2.10;1.53;;;29.70;62.80;;;;;;4975305;28;20779;-76
2022/06/24 09:03:05;;;;;;;3.93;3.13;;;29.80;63.40;;;;;;4974476;28;20421;-76
2022/06/24 09:05:32;;;;;;;4.00;2.23;;;29.80;64.70;;;;;;4973686;28;20501;-76
2022/06/24 09:08:04;;;;;;;6.10;2.27;;;29.60;64.70;;;;;;4974866;28;20972;-76
2022/06/24 09:10:30;;;;;;;6.47;2.57;;;30.10;64.50;;;;;;4975159;28;20895;-76
2022/06/24 09:12:56;;;;;;;3.00;2.27;;;29.20;65.20;;;;;;4975059;28;20401;-76
2022/06/24 09:15:22;;;;;;;4.47;2.40;;;28.90;66.40;;;;;;4975102;28;20232;-76
2022/06/24 09:17:48;;;;;;;3.93;2.00;;;28.90;68.00;;;;;;4974753;28;20668;-76
2022/06/24 09:20:24;;;;;;;3.83;2.70;;;28.30;67.80;;;;;;4974704;28;20427;-77
2022/06/24 09:22:50;;;;;;;11.13;2.50;;;28.30;68.80;;;;;;4973674;28;20967;-77
2022/06/24 09:25:17;;;;;;;4.70;2.70;;;28.00;69.00;;;;;;4974689;28;20980;-76
2022/06/24 09:27:46;;;;;;;3.73;2.10;;;27.60;69.80;;;;;;4974514;28;20646;-78
2022/06/24 09:30:16;;;;;;;2.30;2.10;;;27.60;70.30;;;;;;4973578;28;20463;-77
2022/06/24 09:32:52;;;;;;;3.93;2.30;;;27.50;70.00;;;;;;4973341;28;20420;-77
2022/06/24 09:35:18;;;;;;;6.77;2.60;;;27.40;71.50;;;;;;4974712;28;20419;-76
2022/06/24 09:37:49;;;;;;;4.27;2.50;;;27.40;71.70;;;;;;4974383;28;20414;-77
2022/06/24 09:40:19;;;;;;;5.77;2.23;;;27.40;71.00;;;;;;4973274;28;20421;-76
2022/06/24 09:43:01;;;;;;;8.00;2.77;;;27.60;71.70;;;;;;4974789;28;20496;-76
2022/06/24 09:45:44;;;;;;;4.03;2.27;;;27.90;70.40;;;;;;4974353;28;20474;-76
2022/06/24 09:48:11;;;;;;;5.97;2.17;;;28.30;70.90;;;;;;4972895;28;20855;-76
2022/06/24 09:50:39;;;;;;;7.20;2.70;;;28.30;70.00;;;;;;4974288;28;20948;-77
2022/06/24 09:53:05;;;;;;;5.07;2.30;;;27.80;70.00;;;;;;4974347;28;20421;-77
2022/06/24 09:55:31;;;;;;;4.63;2.10;;;27.80;70.90;;;;;;4974025;28;20425;-76
2022/06/24 09:57:59;;;;;;;3.83;2.00;;;27.70;71.00;;;;;;4974056;28;20416;-77
2022/06/24 10:00:40;;;;;;;4.93;2.60;;;27.00;73.50;;;;;;4974132;28;20216;-77
2022/06/24 10:03:10;;;;;;;2.20;2.00;;;26.80;74.00;;;;;;4973037;28;20416;-76
2022/06/24 10:05:37;;;;;;;4.50;2.40;;;26.00;74.90;;;;;;4973973;28;20988;-76
2022/06/24 10:08:05;;;;;;;3.80;2.57;;;25.70;76.20;;;;;;4972420;28;20779;-77
2022/06/24 10:10:33;;;;;;;7.20;2.80;;;25.60;75.80;;;;;;4974007;28;20409;-76
2022/06/24 10:13:06;;;;;;;11.13;2.80;;;25.40;77.20;;;;;;4974012;28;20413;-76
2022/06/24 10:15:31;;;;;;;8.50;2.40;;;25.40;77.30;;;;;;4972206;28;20428;-76
2022/06/24 10:17:58;;;;;;;12.73;3.17;;;25.30;78.10;;;;;;4973583;28;20488;-77
2022/06/24 10:20:24;;;;;;;6.37;2.40;;;25.20;78.00;;;;;;4973742;28;20182;-77
2022/06/24 10:22:54;;;;;;;12.60;2.70;;;25.00;78.30;;;;;;4973746;28;20417;-77
2022/06/24 10:25:50;;;;;;;7.30;2.60;;;25.00;79.00;;;;;;4973119;28;20209;-78
2022/06/24 10:28:16;;;;;;;16.20;3.87;;;25.10;78.00;;;;;;4973238;28;20409;-78
2022/06/24 11:03:52;;;;;;;17.47;2.87;;;24.80;81.70;;;;;;5203937;23;20488;-80
2022/06/24 11:06:17;;;;;;;12.53;3.40;;;24.40;81.50;;;;;;4999485;28;20447;-80
2022/06/24 11:08:43;;;;;;;6.03;3.27;;;24.20;82.50;;;;;;4995606;28;20428;-79
2022/06/24 11:11:08;;;;;;;4.40;2.70;;;24.10;83.20;;;;;;4995853;28;20189;-79
2022/06/24 11:13:34;;;;;;;7.50;3.20;;;23.90;84.90;;;;;;4995667;28;20256;-79
2022/06/24 11:16:00;;;;;;;4.83;3.23;;;23.50;87.20;;;;;;4976683;28;20181;-76
2022/06/24 11:18:30;;;;;;;11.37;3.70;;;23.10;89.10;;;;;;4975016;28;20184;-76
2022/06/24 11:21:01;;;;;;;9.53;3.00;;;22.80;91.90;;;;;;4977678;28;20880;-77
2022/06/24 11:23:32;;;;;;;13.70;3.23;;;22.60;95.30;;;;;;4966163;28;20531;-79
2022/06/24 11:26:03;;;;;;;4.80;3.40;;;22.50;96.30;;;;;;4969765;28;21018;-78
2022/06/24 11:28:35;;;;;;;7.53;3.47;;;22.30;96.30;;;;;;4974723;28;20427;-76
2022/06/24 11:31:23;;;;;;;3.73;2.70;;;22.40;96.30;;;;;;4991895;28;20437;-77
2022/06/24 11:34:09;;;;;;;5.00;2.57;;;22.50;96.30;;;;;;4988995;28;20435;-76
2022/06/24 11:36:36;;;;;;;4.80;3.00;;;22.80;95.50;;;;;;4999714;28;20903;-76
2022/06/24 11:39:07;;;;;;;3.60;2.40;;;23.10;96.30;;;;;;5008328;28;20901;-77
2022/06/24 11:41:34;;;;;;;3.97;2.60;;;23.30;94.80;;;;;;4996570;28;20547;-77
2022/06/24 11:44:00;;;;;;;3.07;2.60;;;23.70;96.30;;;;;;4996002;28;20444;-77
2022/06/24 11:46:26;;;;;;;3.13;2.27;;;24.10;95.90;;;;;;4996044;28;20428;-76
2022/06/24 11:49:05;;;;;;;7.83;2.57;;;24.00;91.30;;;;;;4996189;28;20224;-76
2022/06/24 11:51:31;;;;;;;10.43;2.73;;;23.90;90.90;;;;;;5149965;23;20220;-77
2022/06/24 11:53:57;;;;;;;5.77;2.80;;;23.90;91.90;;;;;;4996678;28;20421;-79
2022/06/24 11:56:27;;;;;;;6.03;2.93;;;23.60;92.10;;;;;;4997019;28;20692;-77
2022/06/24 11:58:53;;;;;;;7.60;4.37;;;23.20;92.80;;;;;;4978915;28;20428;-76
2022/06/24 12:01:19;;;;;;;7.07;2.97;;;22.70;92.80;;;;;;4986779;28;20434;-76
2022/06/24 12:03:46;;;;;;;10.90;3.13;;;22.50;94.30;;;;;;4975987;28;20433;-75
2022/06/24 12:06:12;;;;;;;7.70;3.20;;;22.30;94.20;;;;;;4976083;28;20217;-76
2022/06/24 12:08:38;;;;;;;5.80;3.00;;;22.20;96.30;;;;;;4975967;28;20414;-75
2022/06/24 12:11:13;;;;;;;5.07;3.53;;;22.10;96.30;;;;;;4976210;28;20194;-76
2022/06/24 12:13:39;;;;;;;7.13;3.20;;;21.90;96.30;;;;;;4976606;28;20539;-78
2022/06/24 12:16:05;;;;;;;13.07;4.17;;;21.50;96.30;;;;;;4976385;28;20479;-76
2022/06/24 12:18:30;;;;;;;5.77;3.80;;;21.20;96.30;;;;;;4975796;28;20185;-74
2022/06/24 12:21:01;;;;;;;14.53;3.17;;;20.90;96.30;;;;;;4959015;28;20445;-72
2022/06/24 12:23:38;;;;;;;10.03;3.90;;;20.40;96.30;;;;;;4978120;28;20261;-72
2022/06/24 12:26:14;;;;;;;3.80;3.50;;;19.80;96.30;;;;;;4975334;28;20999;-73
2022/06/24 12:28:41;;;;;;;7.23;3.70;;;19.50;96.30;;;;;;4962059;28;20413;-77
2022/06/24 12:31:09;;;;;;;4.50;3.87;;;19.40;96.30;;;;;;4961678;28;20441;-75
2022/06/24 12:33:38;;;;;;;4.40;3.53;;;19.20;96.30;;;;;;4962099;28;20440;-77
2022/06/24 12:36:11;;;;;;;9.43;4.63;;;19.10;96.30;;;;;;4971855;28;20424;-74
2022/06/24 12:39:07;;;;;;;3.90;3.10;;;19.00;96.30;;;;;;4958408;28;20496;-73
2022/06/24 12:52:04;;;;;;;3.93;3.60;;;19.00;96.30;;;;;;4944459;28;20524;-78
2022/06/24 12:54:30;;;;;;;4.70;3.87;;;19.10;96.30;;;;;;4975381;28;20508;-78
2022/06/24 12:56:55;;;;;;;4.30;3.90;;;19.20;96.30;;;;;;4975475;28;20184;-77
2022/06/24 12:59:21;;;;;;;6.07;4.43;;;19.30;96.30;;;;;;4975311;28;20707;-78
2022/06/24 13:01:47;;;;;;;6.20;3.90;;;19.40;96.30;;;;;;4975108;28;20194;-78
2022/06/24 13:04:13;;;;;;;11.83;3.77;;;19.30;96.30;;;;;;4959187;28;20529;-75
2022/06/24 13:06:40;;;;;;;3.73;3.43;;;19.40;96.30;;;;;;4938489;29;20185;-75
2022/06/24 13:09:07;;;;;;;6.80;3.60;;;19.40;96.30;;;;;;4956060;29;20446;-80
2022/06/24 13:11:33;;;;;;;4.10;3.70;;;19.50;96.30;;;;;;4955867;29;20438;-79
2022/06/24 13:13:59;;;;;;;3.90;3.50;;;19.50;96.30;;;;;;4971188;28;20430;-79
2022/06/24 13:16:24;;;;;;;4.50;3.97;;;19.50;96.30;;;;;;4974050;28;20413;-78
2022/06/24 13:18:50;;;;;;;6.40;4.30;;;19.30;96.30;;;;;;4973798;28;20170;-78
2022/06/24 13:21:16;;;;;;;5.70;4.40;;;19.20;96.30;;;;;;4974058;28;20195;-78
2022/06/24 13:23:41;;;;;;;4.93;4.40;;;19.00;96.30;;;;;;4973817;28;20673;-77
2022/06/24 13:26:07;;;;;;;4.90;4.20;;;18.70;96.30;;;;;;4973709;28;20565;-78
2022/06/24 13:28:35;;;;;;;11.93;4.40;;;18.70;96.30;;;;;;4972799;28;20194;-77
2022/06/24 13:31:02;;;;;;;6.47;4.60;;;18.60;96.30;;;;;;4972273;28;20293;-76
2022/06/24 13:33:27;;;;;;;7.27;4.80;;;18.50;96.30;;;;;;4973485;28;20413;-76
2022/06/24 13:35:53;;;;;;;4.83;4.43;;;18.50;96.30;;;;;;4969359;28;20422;-76
2022/06/24 13:38:19;;;;;;;7.27;4.20;;;18.60;96.30;;;;;;4973071;28;20182;-77
2022/06/24 13:40:45;;;;;;;5.63;4.90;;;18.50;96.30;;;;;;4973571;28;20438;-77
2022/06/24 13:43:15;;;;;;;7.83;5.00;;;18.50;96.30;;;;;;4974380;28;20197;-76
2022/06/24 13:45:41;;;;;;;5.80;4.60;;;18.60;96.30;;;;;;4974259;28;20544;-76
2022/06/24 13:48:08;;;;;;;6.83;4.30;;;18.60;96.30;;;;;;4974150;28;21102;-76
2022/06/24 13:50:34;;;;;;;11.50;5.00;;;18.50;96.30;;;;;;4973654;28;20886;-76
2022/06/24 13:53:00;;;;;;;5.47;4.43;;;18.40;96.30;;;;;;4974404;28;20505;-75
2022/06/24 13:55:26;;;;;;;8.70;4.80;;;18.30;96.30;;;;;;4974380;28;20417;-75
2022/06/24 13:57:52;;;;;;;3.90;3.60;;;18.20;96.30;;;;;;4973898;28;20432;-76
2022/06/24 14:00:17;;;;;;;5.87;3.47;;;18.10;96.30;;;;;;4973795;28;20178;-75
2022/06/24 14:02:43;;;;;;;5.50;3.40;;;18.10;96.30;;;;;;4973948;28;20202;-72
2022/06/24 14:05:09;;;;;;;9.57;3.20;;;18.00;96.30;;;;;;4973867;28;20662;-72
2022/06/24 14:07:34;;;;;;;5.93;2.63;;;17.80;96.30;;;;;;4972473;28;20178;-72
2022/06/24 14:10:00;;;;;;;3.03;2.60;;;17.60;96.30;;;;;;4972715;28;20182;-74
2022/06/24 14:12:25;;;;;;;3.13;2.70;;;17.50;96.30;;;;;;4973907;28;20581;-73
2022/06/24 14:14:51;;;;;;;3.73;2.60;;;17.60;96.30;;;;;;4974023;28;20667;-73
2022/06/24 14:17:16;;;;;;;5.23;2.57;;;17.50;96.30;;;;;;4973962;28;20178;-74
2022/06/24 14:19:42;;;;;;;9.13;2.43;;;17.50;96.30;;;;;;4973669;28;20179;-76
2022/06/24 14:22:08;;;;;;;2.93;2.30;;;17.50;96.30;;;;;;4973667;28;20773;-74
2022/06/24 14:24:34;;;;;;;3.03;2.40;;;17.40;96.30;;;;;;4973742;28;20292;-74
2022/06/24 14:27:01;;;;;;;3.17;2.27;;;17.30;96.30;;;;;;4973700;28;20795;-76
2022/06/24 14:29:27;;;;;;;2.47;2.27;;;17.30;96.30;;;;;;4973683;28;20402;-75
2022/06/24 14:31:52;;;;;;;6.97;2.90;;;17.30;96.30;;;;;;4973540;28;20432;-75
2022/06/24 14:34:18;;;;;;;3.90;2.33;;;17.30;96.30;;;;;;4973402;28;20261;-75
2022/06/24 14:36:43;;;;;;;3.87;1.93;;;17.50;96.30;;;;;;4973518;28;20572;-75
2022/06/24 14:41:54;;;;;;;4.50;2.50;;;17.80;96.30;;;;;;4973737;28;20209;-76
2022/06/24 14:44:19;;;;;;;3.37;2.60;;;18.00;96.30;;;;;;4973258;28;20500;-78
2022/06/24 14:46:45;;;;;;;4.70;3.10;;;18.10;96.30;;;;;;4973329;28;20894;-77
2022/06/24 14:49:10;;;;;;;2.93;2.40;;;18.30;96.30;;;;;;4973156;28;20170;-77
2022/06/24 14:51:35;;;;;;;2.60;2.40;;;18.50;96.30;;;;;;4973116;28;20214;-77
2022/06/24 14:54:01;;;;;;;3.33;2.00;;;18.80;96.30;;;;;;4973328;28;20578;-78
2022/06/24 14:56:27;;;;;;;4.70;2.60;;;19.20;96.30;;;;;;4973622;28;20178;-77
2022/06/24 14:58:53;;;;;;;3.00;2.70;;;19.50;96.30;;;;;;4973121;28;20528;-77
2022/06/24 15:01:18;;;;;;;4.13;2.63;;;19.80;96.30;;;;;;4972287;28;20194;-77
2022/06/24 15:03:44;;;;;;;2.97;2.77;;;20.10;96.30;;;;;;4973023;28;20256;-77
2022/06/24 15:06:10;;;;;;;4.43;2.27;;;20.50;96.30;;;;;;4973161;28;20256;-77
2022/06/24 15:08:35;;;;;;;2.37;2.17;;;20.60;96.30;;;;;;4972980;28;20185;-76
2022/06/24 15:11:02;;;;;;;4.23;2.27;;;20.70;96.30;;;;;;4973056;28;20222;-75
2022/06/24 15:13:27;;;;;;;3.07;2.30;;;20.80;96.30;;;;;;4972198;28;20533;-75
2022/06/24 15:15:53;;;;;;;3.43;2.70;;;20.90;96.30;;;;;;4973075;28;20411;-75
2022/06/24 15:18:18;;;;;;;3.90;2.53;;;21.30;96.30;;;;;;4972871;28;20182;-75
2022/06/24 15:20:44;;;;;;;3.50;2.40;;;21.30;96.30;;;;;;4972998;28;20194;-76
2022/06/24 15:23:10;;;;;;;3.77;2.90;;;21.80;96.30;;;;;;4973004;28;20197;-75
2022/06/24 15:25:36;;;;;;;2.80;2.10;;;22.40;96.30;;;;;;4973135;28;20233;-75
2022/06/24 15:28:01;;;;;;;4.43;2.33;;;22.70;96.30;;;;;;4972690;28;20458;-75
2022/06/24 15:30:27;;;;;;;2.77;1.87;;;22.90;96.30;;;;;;4972907;28;20197;-75
2022/06/24 15:32:52;;;;;;;3.57;2.57;;;23.10;96.30;;;;;;4972921;28;20166;-76
2022/06/24 15:35:18;;;;;;;4.60;2.70;;;23.40;96.30;;;;;;4973013;28;20646;-75
2022/06/24 15:37:44;;;;;;;2.13;1.83;;;23.60;96.30;;;;;;4972751;28;20822;-75
2022/06/24 15:40:10;;;;;;;2.53;2.17;;;24.00;96.30;;;;;;4972834;28;20552;-75
2022/06/24 15:42:35;;;;;;;2.00;1.80;;;23.90;96.30;;;;;;4972927;28;20194;-77
2022/06/24 15:45:02;;;;;;;2.60;1.50;;;24.20;96.30;;;;;;4972834;28;20456;-77
2022/06/24 15:47:27;;;;;;;4.07;1.83;;;24.50;96.30;;;;;;4972656;28;20182;-76
2022/06/24 15:49:53;;;;;;;2.77;1.67;;;24.40;96.30;;;;;;4972774;28;20511;-76
2022/06/24 15:52:19;;;;;;;3.63;1.80;;;24.20;96.30;;;;;;4972858;28;20249;-76
2022/06/24 15:54:44;;;;;;;2.33;2.10;;;24.10;96.30;;;;;;4972963;28;20179;-76
2022/06/24 15:57:10;;;;;;;5.50;2.20;;;24.10;96.30;;;;;;4972833;28;20178;-76
2022/06/24 15:59:35;;;;;;;2.43;2.10;;;24.00;96.30;;;;;;4972526;28;20265;-76
2022/06/24 16:02:01;;;;;;;3.23;1.87;;;23.90;96.30;;;;;;4972639;28;20205;-76
2022/06/24 16:04:26;;;;;;;3.37;1.80;;;23.70;96.30;;;;;;4972610;28;20202;-76
2022/06/24 16:06:52;;;;;;;4.90;1.57;;;23.60;96.30;;;;;;4972814;28;20174;-76
2022/06/24 16:09:18;;;;;;;2.60;1.60;;;23.50;96.30;;;;;;4972586;28;20170;-76
2022/06/24 16:14:27;;;;;;;3.30;2.00;;;23.30;96.30;;;;;;4975997;28;20217;-76
2022/06/24 16:16:53;;;;;;;3.53;2.20;;;23.30;96.30;;;;;;4976166;28;20833;-76
2022/06/24 16:19:18;;;;;;;4.17;2.10;;;23.30;96.30;;;;;;4975879;28;20257;-76
2022/06/24 16:21:44;;;;;;;3.60;2.20;;;23.20;96.30;;;;;;4975963;28;20674;-76
2022/06/24 16:24:11;;;;;;;4.50;2.20;;;23.20;96.30;;;;;;4975950;28;20170;-76
2022/06/24 16:29:20;;;;;;;3.33;2.20;;;23.40;96.30;;;;;;4975651;28;20409;-76
2022/06/24 16:31:46;;;;;;;3.77;2.20;;;23.30;96.30;;;;;;4975574;28;20438;-76
2022/06/24 16:34:11;;;;;;;2.43;2.17;;;23.30;96.30;;;;;;4975912;28;20182;-76
2022/06/24 16:36:37;;;;;;;2.80;2.33;;;23.40;96.30;;;;;;4975769;28;20538;-76
2022/06/24 16:39:02;;;;;;;3.90;2.13;;;23.40;96.30;;;;;;4975481;28;20186;-76
2022/06/24 16:41:28;;;;;;;3.43;2.03;;;23.20;96.30;;;;;;4975432;28;20201;-76
2022/06/24 16:43:53;;;;;;;2.43;1.87;;;23.10;96.30;;;;;;4975702;28;20257;-76
2022/06/24 16:46:19;;;;;;;3.33;2.20;;;23.20;96.30;;;;;;4974908;28;20201;-76
2022/06/24 16:48:44;;;;;;;3.47;2.20;;;23.10;96.30;;;;;;4975059;28;20635;-76
2022/06/24 16:51:14;;;;;;;2.83;2.27;;;22.70;96.30;;;;;;4973032;28;20301;-78
2022/06/24 16:53:40;;;;;;;2.80;2.00;;;22.80;96.30;;;;;;4956592;28;20183;-77
2022/06/24 16:56:07;;;;;;;2.60;2.40;;;22.80;96.30;;;;;;4974859;28;20788;-77
2022/06/24 16:58:33;;;;;;;4.80;2.70;;;22.60;96.30;;;;;;4974832;28;20414;-78
2022/06/24 17:01:00;;;;;;;3.17;2.00;;;22.40;96.30;;;;;;4974803;28;21125;-77
2022/06/24 17:03:27;;;;;;;2.67;2.47;;;22.30;96.30;;;;;;4975150;28;20641;-78
2022/06/24 17:05:54;;;;;;;2.80;2.50;;;22.00;96.30;;;;;;4975138;28;20511;-78
2022/06/24 17:08:20;;;;;;;2.90;2.10;;;21.60;96.30;;;;;;4961611;28;20417;-78
2022/06/24 17:10:46;;;;;;;4.67;2.67;;;21.40;96.30;;;;;;4975029;28;20430;-78
2022/06/24 17:13:11;;;;;;;3.13;2.80;;;21.30;96.30;;;;;;4974871;28;20593;-78
2022/06/24 17:15:37;;;;;;;5.70;2.90;;;21.20;96.30;;;;;;4974869;28;20609;-78
2022/06/24 17:18:03;;;;;;;4.43;2.77;;;21.20;96.30;;;;;;4957019;28;20185;-78
2022/06/24 17:20:29;;;;;;;4.13;2.90;;;20.90;96.30;;;;;;4974574;28;20189;-79
2022/06/24 17:22:54;;;;;;;4.77;3.10;;;20.90;96.30;;;;;;4974520;28;20418;-78
2022/06/24 17:25:20;;;;;;;3.60;3.10;;;20.80;96.30;;;;;;4973661;28;20203;-78
2022/06/24 17:27:46;;;;;;;6.33;3.10;;;20.80;96.30;;;;;;4956440;28;20182;-78
2022/06/24 17:30:11;;;;;;;3.07;2.77;;;20.90;96.30;;;;;;4974526;28;20167;-78
2022/06/24 17:32:37;;;;;;;3.50;2.70;;;21.00;96.30;;;;;;4974413;28;20190;-78
2022/06/24 17:35:03;;;;;;;3.23;2.90;;;21.00;96.30;;;;;;4974481;28;20182;-79
2022/06/24 17:37:29;;;;;;;2.87;2.63;;;21.20;96.30;;;;;;4974256;28;20182;-78
2022/06/24 17:39:54;;;;;;;5.73;3.27;;;21.30;96.30;;;;;;4957266;28;20420;-77
2022/06/24 17:42:20;;;;;;;4.40;2.93;;;21.40;96.30;;;;;;4974425;28;20231;-77